Leon, Minnesota
Current Conditions -  °F | °C
As of 10:55 PM on Saturday 22 Nov 2014 (Local Time) from KFSE Reporting Station
Scattered Clouds Scattered Clouds  
Wind Chill: 23°   Ceiling: Unl
Heat Index: 30°   Visibility: 7mi
Dew Point: 27°   Wind: 8mph
Humidity: 86%   Direction: 140°SE
Pressure: 29.37"   Gusts: NA
Location:  47.7926°N, 95.3062°W
Report Text: KFSE 230455Z AUTO 14007KT 7SM SCT011 M01/M03 A2937 RMK AO2
Loading
Personal Weather Stations






























Interactive Weather Map New forecast layout! Learn more

10-Day Weather Forecast

Advertisements
Track Severe Weather on mobile